Terminal Aerodrome Forecast
Issued by NWS

Home | Current Version | Previous Version | Text Only | Print | Product List | Glossary On
Versions: 1 2 3 4 5 6 7 8 9 10 11 12 13 14 15 16 17 18 19 20 21 22 23 24 25 26 27 28 29 30
000
FTUS43 KGRB 262334
TAFRHI
TAF
KRHI 262334Z 2700/2724 26006KT P6SM SCT100 BKN250
     FM270200 VRB03KT P6SM SCT050 OVC100
      TEMPO 2703/2707 5SM -TSRA BR BKN050CB
     FM270800 VRB02KT 5SM -SHRA BR OVC050
     FM271400 29003KT P6SM VCSH OVC040
     FM271900 02004KT 6SM -SHRA OVC040=

USA.gov is the U.S. government's official web portal to all federal, state and local government web resources and services.